Station History

Weather Underground - logo

Station Historical Data
Daily Summary for July 24, 2017 Units:  English    Metric   Both
« Previous Day
Next Day »
Daily Weekly Monthly Yearly Custom
  High: Low: Average:
Temperature: 101.0 °F 69.0 °F 84.8 °F
Dew Point: 62.5 °F 49.1 °F 55.2 °F
Humidity: 61 % 18 % 38 %
Wind Speed: 4.6 mph 0.0 mph 1 mph
Wind Gust: 4.6 mph - -
Wind:- - SSW
Pressure: 29.78 in 29.68 in -
Precipitation: 0.00 in    
Historical Graphs
 
 
Tabular Data for July 24, 2017
Time Temperature Dew Point Pressure Wind Wind Speed Wind Gust Humidity Rainfall Rate (Hourly)
00:02 77.9 °F 53.0 °F 29.72 in Calm     42 % 0.00 in
00:07 77.5 °F 53.9 °F 29.72 in SE 1.2 mph 1.2 mph 44 % 0.00 in
00:12 77.0 °F 53.4 °F 29.72 in Calm     44 % 0.00 in
00:17 76.6 °F 53.7 °F 29.72 in Calm     45 % 0.00 in
00:22 76.2 °F 53.9 °F 29.72 in Calm     46 % 0.00 in
00:27 75.9 °F 53.0 °F 29.72 in Calm     45 % 0.00 in
00:32 75.8 °F 53.5 °F 29.72 in SE 1.2 mph 1.2 mph 46 % 0.00 in
00:37 75.5 °F 53.3 °F 29.72 in Calm   0.1 mph 46 % 0.00 in
00:42 75.5 °F 52.7 °F 29.72 in Calm   0.1 mph 45 % 0.00 in
00:48 75.4 °F 52.6 °F 29.72 in Calm     45 % 0.00 in
00:53 75.4 °F 52.6 °F 29.72 in Calm     45 % 0.00 in
00:58 75.3 °F 51.3 °F 29.72 in SSE 1.2 mph 1.2 mph 43 % 0.00 in
01:03 75.4 °F 51.3 °F 29.72 in Calm     43 % 0.00 in
01:08 75.5 °F 50.8 °F 29.72 in South 1.2 mph   42 % 0.00 in
01:13 75.6 °F 50.9 °F 29.73 in Calm     42 % 0.00 in
01:18 75.5 °F 50.8 °F 29.72 in Calm     42 % 0.00 in
01:23 75.5 °F 51.4 °F 29.72 in Calm     43 % 0.00 in
01:28 75.2 °F 51.8 °F 29.73 in Calm     44 % 0.00 in
01:33 74.9 °F 52.1 °F 29.73 in Calm     45 % 0.00 in
01:38 74.5 °F 52.9 °F 29.73 in Calm     47 % 0.00 in
01:43 74.2 °F 53.2 °F 29.73 in Calm     48 % 0.00 in
01:48 74.0 °F 52.5 °F 29.73 in Calm     47 % 0.00 in
01:53 73.9 °F 53.5 °F 29.73 in Calm     49 % 0.00 in
01:58 73.7 °F 52.8 °F 29.73 in Calm     48 % 0.00 in
02:03 73.7 °F 52.8 °F 29.73 in Calm     48 % 0.00 in
02:08 73.6 °F 52.7 °F 29.73 in Calm     48 % 0.00 in
02:13 73.5 °F 52.0 °F 29.73 in Calm     47 % 0.00 in
02:18 73.9 °F 51.2 °F 29.73 in Calm     45 % 0.00 in
02:23 74.1 °F 50.8 °F 29.73 in Calm     44 % 0.00 in
02:28 74.0 °F 54.2 °F 29.73 in Calm     50 % 0.00 in
02:33 73.9 °F 55.2 °F 29.73 in Calm     52 % 0.00 in
02:38 73.7 °F 54.4 °F 29.73 in Calm     51 % 0.00 in
02:43 73.5 °F 54.3 °F 29.73 in Calm     51 % 0.00 in
02:48 73.3 °F 55.1 °F 29.72 in Calm     53 % 0.00 in
02:53 73.1 °F 54.9 °F 29.72 in Calm     53 % 0.00 in
02:58 72.9 °F 54.8 °F 29.72 in Calm     53 % 0.00 in
03:03 72.8 °F 55.7 °F 29.72 in Calm     55 % 0.00 in
03:08 72.7 °F 54.1 °F 29.72 in Calm     52 % 0.00 in
03:13 72.5 °F 54.4 °F 29.72 in Calm     53 % 0.00 in
03:18 72.3 °F 54.2 °F 29.72 in Calm     53 % 0.00 in
03:23 72.2 °F 53.6 °F 29.72 in Calm     52 % 0.00 in
03:28 72.4 °F 55.8 °F 29.72 in Calm     56 % 0.00 in
03:33 72.5 °F 55.4 °F 29.72 in Calm     55 % 0.00 in
03:38 72.5 °F 56.4 °F 29.72 in Calm     57 % 0.00 in
03:43 72.5 °F 56.4 °F 29.72 in Calm     57 % 0.00 in
03:48 72.4 °F 58.2 °F 29.72 in Calm     61 % 0.00 in
03:53 72.1 °F 57.4 °F 29.72 in Calm     60 % 0.00 in
03:58 71.8 °F 54.8 °F 29.72 in Calm     55 % 0.00 in
04:03 71.8 °F 55.3 °F 29.72 in Calm     56 % 0.00 in
04:08 71.6 °F 54.1 °F 29.72 in Calm     54 % 0.00 in
04:13 71.3 °F 52.8 °F 29.72 in Calm     52 % 0.00 in
04:18 71.1 °F 52.6 °F 29.72 in Calm     52 % 0.00 in
04:24 71.0 °F 52.5 °F 29.72 in Calm     52 % 0.00 in
04:29 70.9 °F 52.9 °F 29.72 in Calm     53 % 0.00 in
04:34 70.8 °F 52.8 °F 29.72 in Calm     53 % 0.00 in
04:39 70.7 °F 52.2 °F 29.72 in Calm     52 % 0.00 in
04:44 70.6 °F 52.1 °F 29.72 in Calm     52 % 0.00 in
04:49 70.5 °F 52.5 °F 29.73 in Calm     53 % 0.00 in
04:54 70.3 °F 51.8 °F 29.73 in Calm     52 % 0.00 in
04:59 70.3 °F 51.3 °F 29.73 in Calm     51 % 0.00 in
05:04 70.2 °F 50.7 °F 29.73 in Calm     50 % 0.00 in
05:09 70.2 °F 51.2 °F 29.73 in SE 1.2 mph 1.2 mph 51 % 0.00 in
05:14 70.3 °F 51.8 °F 29.73 in ESE 1.2 mph 1.2 mph 52 % 0.00 in
05:17 70.3 °F 51.8 °F 29.73 in ESE 1.2 mph 1.2 mph 52 % 0.00 in
05:22 70.2 °F 51.7 °F 29.73 in Calm     52 % 0.00 in
05:27 70.0 °F 51.6 °F 29.73 in ESE 1.2 mph 1.2 mph 52 % 0.00 in
05:32 69.9 °F 51.5 °F 29.73 in Calm     52 % 0.00 in
05:37 69.7 °F 51.3 °F 29.73 in Calm     52 % 0.00 in
05:42 69.6 °F 50.7 °F 29.73 in ESE 1.2 mph 1.2 mph 51 % 0.00 in
05:47 69.6 °F 51.2 °F 29.74 in ESE 1.2 mph 1.2 mph 52 % 0.00 in
05:52 69.4 °F 52.0 °F 29.74 in ESE 1.2 mph 1.2 mph 54 % 0.00 in
05:57 69.1 °F 51.8 °F 29.74 in Calm     54 % 0.00 in
06:02 69.0 °F 51.2 °F 29.74 in Calm     53 % 0.00 in
06:07 69.1 °F 50.7 °F 29.74 in Calm     52 % 0.00 in
06:12 69.1 °F 51.2 °F 29.74 in ESE 1.0 mph   53 % 0.00 in
06:17 69.2 °F 51.3 °F 29.75 in ESE 1.2 mph 1.2 mph 53 % 0.00 in
06:22 69.2 °F 50.8 °F 29.75 in Calm     52 % 0.00 in
06:27 69.3 °F 50.4 °F 29.75 in Calm     51 % 0.00 in
06:32 69.5 °F 50.6 °F 29.75 in ESE 1.2 mph   51 % 0.00 in
06:37 69.8 °F 50.3 °F 29.75 in ESE 2.3 mph   50 % 0.00 in
06:42 70.2 °F 51.2 °F 29.75 in ESE 1.2 mph   51 % 0.00 in
06:47 70.5 °F 51.5 °F 29.75 in ESE 1.2 mph 1.2 mph 51 % 0.00 in
06:52 70.8 °F 51.8 °F 29.76 in Calm   0.1 mph 51 % 0.00 in
06:57 71.2 °F 51.6 °F 29.76 in ESE 1.2 mph 1.2 mph 50 % 0.00 in
07:02 71.7 °F 52.1 °F 29.76 in ESE 1.2 mph 1.2 mph 50 % 0.00 in
07:07 72.7 °F 53.0 °F 29.76 in SSE 1.2 mph 1.2 mph 50 % 0.00 in
07:12 73.8 °F 54.0 °F 29.76 in Calm     50 % 0.00 in
07:22 75.4 °F 54.9 °F 29.77 in Calm     49 % 0.00 in
07:27 76.2 °F 55.1 °F 29.77 in South 2.3 mph 2.3 mph 48 % 0.00 in
07:33 76.7 °F 54.4 °F 29.77 in SSE 1.2 mph 1.2 mph 46 % 0.00 in
07:38 77.4 °F 53.8 °F 29.77 in SSE 1.2 mph 1.2 mph 44 % 0.00 in
07:43 78.0 °F 54.9 °F 29.77 in Calm     45 % 0.00 in
07:48 78.8 °F 56.3 °F 29.77 in Calm     46 % 0.00 in
07:53 79.4 °F 56.2 °F 29.77 in Calm     45 % 0.00 in
08:03 80.1 °F 58.0 °F 29.77 in South 2.3 mph 2.3 mph 47 % 0.00 in
08:08 80.4 °F 58.3 °F 29.77 in South 1.2 mph 1.2 mph 47 % 0.00 in
08:13 80.5 °F 57.8 °F 29.77 in NNW 1.2 mph 1.2 mph 46 % 0.00 in
08:18 80.9 °F 58.8 °F 29.77 in NNW 1.2 mph 1.2 mph 47 % 0.00 in
08:23 81.0 °F 58.3 °F 29.77 in WNW 1.2 mph   46 % 0.00 in
08:28 81.6 °F 59.4 °F 29.77 in East 1.2 mph 1.2 mph 47 % 0.00 in
08:33 81.6 °F 58.2 °F 29.77 in East 2.3 mph 2.3 mph 45 % 0.00 in
08:38 81.8 °F 59.0 °F 29.77 in ESE 3.5 mph 3.5 mph 46 % 0.00 in
08:43 82.4 °F 58.9 °F 29.77 in Calm   0.1 mph 45 % 0.00 in
08:48 82.8 °F 59.3 °F 29.77 in SE 1.2 mph 1.2 mph 45 % 0.00 in
08:54 83.3 °F 59.7 °F 29.77 in ESE 1.2 mph 1.2 mph 45 % 0.00 in
08:58 83.6 °F 58.7 °F 29.77 in SSE 2.3 mph 2.3 mph 43 % 0.00 in
09:03 83.5 °F 58.6 °F 29.77 in SE 3.5 mph 3.5 mph 43 % 0.00 in
09:09 83.3 °F 59.7 °F 29.77 in SE 3.5 mph 3.5 mph 45 % 0.00 in
09:14 83.9 °F 59.0 °F 29.77 in SE 1.2 mph 1.2 mph 43 % 0.00 in
09:19 84.3 °F 59.4 °F 29.77 in South 2.3 mph 2.3 mph 43 % 0.00 in
09:24 85.1 °F 60.1 °F 29.77 in SSE 2.0 mph 2.0 mph 43 % 0.00 in
09:29 85.5 °F 59.8 °F 29.77 in SSE 2.3 mph 2.3 mph 42 % 0.00 in
09:34 86.0 °F 60.2 °F 29.77 in South 1.2 mph 1.2 mph 42 % 0.00 in
09:39 86.3 °F 59.1 °F 29.77 in SE 3.5 mph 3.5 mph 40 % 0.00 in
09:44 86.6 °F 61.4 °F 29.77 in SE 3.0 mph 3.0 mph 43 % 0.00 in
09:49 87.0 °F 59.0 °F 29.77 in SSE 3.5 mph 3.5 mph 39 % 0.00 in
09:54 87.1 °F 59.1 °F 29.77 in South 3.5 mph 3.5 mph 39 % 0.00 in
09:59 87.6 °F 61.7 °F 29.77 in SSE 1.2 mph 1.2 mph 42 % 0.00 in
10:04 88.1 °F 61.4 °F 29.77 in Calm   0.1 mph 41 % 0.00 in
10:09 88.5 °F 62.5 °F 29.77 in ESE 2.3 mph 2.3 mph 42 % 0.00 in
10:14 88.4 °F 61.7 °F 29.77 in West 1.2 mph 1.2 mph 41 % 0.00 in
10:19 88.6 °F 60.5 °F 29.77 in South 2.3 mph 2.3 mph 39 % 0.00 in
10:24 89.0 °F 59.3 °F 29.76 in SSE 2.3 mph 2.3 mph 37 % 0.00 in
10:29 89.4 °F 60.5 °F 29.76 in NW 2.3 mph 2.3 mph 38 % 0.00 in
10:34 89.6 °F 59.1 °F 29.76 in SE 3.5 mph 3.5 mph 36 % 0.00 in
10:36 89.7 °F 60.0 °F 29.76 in SE 3.5 mph 3.5 mph 37 % 0.00 in
10:41 89.7 °F 60.7 °F 29.76 in South 1.2 mph 1.2 mph 38 % 0.00 in
10:46 90.4 °F 61.3 °F 29.76 in SSE 1.2 mph 1.2 mph 38 % 0.00 in
10:51 91.3 °F 60.6 °F 29.76 in ESE 2.3 mph 2.3 mph 36 % 0.00 in
10:56 91.6 °F 58.4 °F 29.76 in SSE 2.3 mph 2.3 mph 33 % 0.00 in
11:01 92.2 °F 57.2 °F 29.76 in NW 1.2 mph 1.2 mph 31 % 0.00 in
11:06 92.9 °F 56.9 °F 29.76 in South 1.2 mph 1.2 mph 30 % 0.00 in
11:11 93.1 °F 56.1 °F 29.76 in South 2.3 mph 2.3 mph 29 % 0.00 in
11:16 93.4 °F 57.3 °F 29.76 in NE 1.2 mph 1.2 mph 30 % 0.00 in
11:21 93.5 °F 55.5 °F 29.76 in SSW 2.0 mph 2.0 mph 28 % 0.00 in
11:26 93.8 °F 54.8 °F 29.76 in SE 1.2 mph 1.2 mph 27 % 0.00 in
11:31 93.6 °F 58.4 °F 29.76 in East 2.3 mph 2.3 mph 31 % 0.00 in
11:36 93.7 °F 59.4 °F 29.76 in NE 1.2 mph 1.2 mph 32 % 0.00 in
11:41 93.8 °F 55.8 °F 29.76 in North 3.5 mph 3.5 mph 28 % 0.00 in
11:47 93.7 °F 58.5 °F 29.76 in NW 1.2 mph 1.2 mph 31 % 0.00 in
11:52 94.2 °F 58.9 °F 29.76 in NW 2.3 mph 2.3 mph 31 % 0.00 in
11:57 94.5 °F 59.2 °F 29.75 in West 2.3 mph 2.3 mph 31 % 0.00 in
12:02 94.9 °F 60.4 °F 29.75 in NW 2.3 mph 2.3 mph 32 % 0.00 in
12:07 95.1 °F 59.7 °F 29.75 in North 2.3 mph 2.3 mph 31 % 0.00 in
12:12 95.6 °F 58.3 °F 29.75 in SE 1.2 mph 1.2 mph 29 % 0.00 in
12:17 96.0 °F 58.6 °F 29.75 in NW 3.5 mph 3.5 mph 29 % 0.00 in
12:18 96.0 °F 58.6 °F 29.75 in North 2.3 mph 2.3 mph 29 % 0.00 in
12:23 96.4 °F 61.7 °F 29.75 in NW 2.3 mph 2.3 mph 32 % 0.00 in
12:28 96.2 °F 59.7 °F 29.75 in WNW 2.3 mph 2.3 mph 30 % 0.00 in
12:33 95.5 °F 59.1 °F 29.75 in ENE 1.2 mph 1.2 mph 30 % 0.00 in
12:38 95.2 °F 57.0 °F 29.75 in West 2.3 mph 2.3 mph 28 % 0.00 in
12:43 95.1 °F 57.8 °F 29.75 in WNW 1.2 mph 1.2 mph 29 % 0.00 in
12:48 94.9 °F 57.7 °F 29.75 in NNE 2.3 mph 2.3 mph 29 % 0.00 in
12:53 94.6 °F 55.4 °F 29.75 in West 2.0 mph 2.0 mph 27 % 0.00 in
12:58 94.3 °F 55.2 °F 29.75 in WNW 2.3 mph 2.3 mph 27 % 0.00 in
13:03 93.8 °F 55.8 °F 29.75 in SSW 1.2 mph 1.2 mph 28 % 0.00 in
13:08 93.8 °F 56.7 °F 29.75 in WSW 3.0 mph 3.0 mph 29 % 0.00 in
13:13 93.3 °F 55.3 °F 29.75 in NW 2.3 mph 2.3 mph 28 % 0.00 in
13:18 93.2 °F 59.8 °F 29.75 in Calm     33 % 0.00 in
13:23 93.3 °F 59.0 °F 29.75 in Calm     32 % 0.00 in
13:28 93.5 °F 60.9 °F 29.75 in NNW 2.3 mph 2.3 mph 34 % 0.00 in
13:30 93.6 °F 61.0 °F 29.75 in NW 2.0 mph 2.0 mph 34 % 0.00 in
13:35 93.6 °F 60.2 °F 29.74 in NW 1.2 mph 1.2 mph 33 % 0.00 in
13:40 94.0 °F 61.4 °F 29.74 in West 1.2 mph 1.2 mph 34 % 0.00 in
13:45 94.9 °F 59.5 °F 29.74 in WNW 2.3 mph 2.3 mph 31 % 0.00 in
13:50 95.1 °F 59.7 °F 29.74 in Calm     31 % 0.00 in
13:55 95.4 °F 59.1 °F 29.74 in NNE 2.3 mph 2.3 mph 30 % 0.00 in
14:00 95.4 °F 58.1 °F 29.74 in NW 1.2 mph 1.2 mph 29 % 0.00 in
14:05 95.5 °F 58.2 °F 29.74 in NW 1.2 mph 1.2 mph 29 % 0.00 in
14:10 95.4 °F 54.0 °F 29.74 in NW 2.3 mph 2.3 mph 25 % 0.00 in
14:15 95.0 °F 58.7 °F 29.74 in WNW 1.2 mph   30 % 0.00 in
14:20 95.3 °F 58.0 °F 29.74 in North 1.2 mph 1.2 mph 29 % 0.00 in
14:25 95.9 °F 55.5 °F 29.74 in NW 1.2 mph   26 % 0.00 in
14:30 96.0 °F 52.2 °F 29.73 in West 2.3 mph 2.3 mph 23 % 0.00 in
14:35 96.6 °F 55.0 °F 29.73 in NNW 4.6 mph 4.6 mph 25 % 0.00 in
14:40 97.2 °F 53.2 °F 29.73 in SSW 1.2 mph 1.2 mph 23 % 0.00 in
14:45 97.8 °F 52.5 °F 29.73 in North 1.2 mph 1.2 mph 22 % 0.00 in
14:50 98.0 °F 52.7 °F 29.72 in NW 1.2 mph 1.2 mph 22 % 0.00 in
14:55 98.6 °F 54.4 °F 29.72 in NW 1.2 mph 1.2 mph 23 % 0.00 in
15:00 98.6 °F 51.9 °F 29.72 in North 2.0 mph 2.0 mph 21 % 0.00 in
15:05 98.1 °F 51.5 °F 29.72 in NNW 2.3 mph 2.3 mph 21 % 0.00 in
15:10 97.3 °F 53.3 °F 29.72 in NW 2.0 mph 2.0 mph 23 % 0.00 in
15:15 97.1 °F 54.3 °F 29.71 in NW 2.0 mph 2.0 mph 24 % 0.00 in
15:20 97.1 °F 55.4 °F 29.71 in NW 2.3 mph 2.3 mph 25 % 0.00 in
15:25 96.8 °F 56.3 °F 29.71 in NW 1.2 mph 1.2 mph 26 % 0.00 in
15:30 96.7 °F 55.1 °F 29.71 in NW 1.2 mph 1.2 mph 25 % 0.00 in
15:35 97.3 °F 54.5 °F 29.70 in WSW 2.3 mph 2.3 mph 24 % 0.00 in
15:36 97.4 °F 54.6 °F 29.70 in West 3.5 mph 3.5 mph 24 % 0.00 in
15:41 98.3 °F 54.1 °F 29.70 in West 1.2 mph 1.2 mph 23 % 0.00 in
15:46 99.0 °F 53.5 °F 29.70 in NNE 2.0 mph 2.0 mph 22 % 0.00 in
15:51 99.7 °F 54.1 °F 29.70 in East 2.3 mph 2.3 mph 22 % 0.00 in
15:56 99.9 °F 54.3 °F 29.70 in NW 2.3 mph 2.3 mph 22 % 0.00 in
16:01 99.8 °F 55.4 °F 29.70 in NNE 1.2 mph 1.2 mph 23 % 0.00 in
16:06 99.5 °F 52.7 °F 29.69 in WNW 2.3 mph 2.3 mph 21 % 0.00 in
16:11 98.5 °F 54.3 °F 29.70 in North 2.3 mph 2.3 mph 23 % 0.00 in
16:16 98.7 °F 53.3 °F 29.69 in NW 3.5 mph 3.5 mph 22 % 0.00 in
16:17 98.8 °F 54.6 °F 29.69 in NW 2.3 mph   23 % 0.00 in
16:22 99.4 °F 55.1 °F 29.69 in NNW 3.0 mph 3.0 mph 23 % 0.00 in
16:27 99.7 °F 52.8 °F 29.70 in WNW 2.3 mph 2.3 mph 21 % 0.00 in
16:32 99.3 °F 53.8 °F 29.69 in NW 3.5 mph 3.5 mph 22 % 0.00 in
16:37 98.3 °F 52.9 °F 29.69 in NNW 2.3 mph 2.3 mph 22 % 0.00 in
16:42 98.3 °F 57.5 °F 29.69 in NW 1.2 mph 1.2 mph 26 % 0.00 in
16:47 98.2 °F 55.2 °F 29.69 in NW 1.2 mph 1.2 mph 24 % 0.00 in
16:52 97.9 °F 55.0 °F 29.69 in NW 1.2 mph 1.2 mph 24 % 0.00 in
16:57 98.6 °F 55.6 °F 29.69 in West 3.5 mph 3.5 mph 24 % 0.00 in
17:02 99.3 °F 52.5 °F 29.69 in NNE 2.3 mph 2.3 mph 21 % 0.00 in
17:07 99.8 °F 52.9 °F 29.69 in NNW 3.5 mph 3.5 mph 21 % 0.00 in
17:12 99.9 °F 53.0 °F 29.69 in NNW 4.0 mph 4.0 mph 21 % 0.00 in
17:17 99.6 °F 52.7 °F 29.69 in WSW 2.3 mph 2.3 mph 21 % 0.00 in
17:22 99.5 °F 49.9 °F 29.68 in West 2.3 mph 2.3 mph 19 % 0.00 in
17:27 99.8 °F 51.6 °F 29.68 in NNE 1.2 mph 1.2 mph 20 % 0.00 in
17:32 99.8 °F 51.6 °F 29.68 in NNW 3.5 mph 3.5 mph 20 % 0.00 in
17:37 100.5 °F 50.8 °F 29.68 in NW 3.5 mph 3.5 mph 19 % 0.00 in
17:42 100.5 °F 49.3 °F 29.68 in ENE 3.5 mph 3.5 mph 18 % 0.00 in
17:47 100.0 °F 50.3 °F 29.68 in North 1.0 mph 1.1 mph 19 % 0.00 in
17:52 100.2 °F 49.1 °F 29.68 in WNW 2.3 mph 2.3 mph 18 % 0.00 in
17:57 100.6 °F 50.8 °F 29.68 in West 1.2 mph 1.2 mph 19 % 0.00 in
18:03 100.9 °F 51.1 °F 29.68 in NW 2.3 mph 2.3 mph 19 % 0.00 in
18:08 101.0 °F 53.9 °F 29.68 in NW 2.3 mph 2.3 mph 21 % 0.00 in
18:13 101.0 °F 52.6 °F 29.68 in NNE 1.2 mph 1.2 mph 20 % 0.00 in
18:18 100.6 °F 53.6 °F 29.69 in NW 1.2 mph 1.2 mph 21 % 0.00 in
18:23 100.3 °F 52.0 °F 29.69 in NNE 1.2 mph 1.2 mph 20 % 0.00 in
18:28 100.4 °F 53.4 °F 29.69 in North 1.2 mph 1.2 mph 21 % 0.00 in
18:33 100.1 °F 54.4 °F 29.69 in Calm     22 % 0.00 in
18:38 99.6 °F 54.0 °F 29.69 in NW 1.2 mph 1.2 mph 22 % 0.00 in
18:43 99.2 °F 52.4 °F 29.69 in Calm     21 % 0.00 in
18:48 99.2 °F 52.4 °F 29.68 in Calm     21 % 0.00 in
18:53 99.1 °F 52.3 °F 29.69 in Calm     21 % 0.00 in
18:58 98.9 °F 54.6 °F 29.69 in Calm     23 % 0.00 in
19:03 97.5 °F 55.8 °F 29.69 in Calm     25 % 0.00 in
19:08 96.2 °F 55.8 °F 29.69 in Calm     26 % 0.00 in
19:13 95.2 °F 57.9 °F 29.69 in Calm     29 % 0.00 in
19:18 94.1 °F 57.9 °F 29.69 in Calm     30 % 0.00 in
19:23 93.3 °F 59.0 °F 29.69 in Calm     32 % 0.00 in
19:28 92.7 °F 58.5 °F 29.69 in Calm     32 % 0.00 in
19:38 91.5 °F 58.3 °F 29.69 in Calm     33 % 0.00 in
19:43 90.8 °F 59.4 °F 29.70 in Calm     35 % 0.00 in
19:48 90.1 °F 59.5 °F 29.70 in Calm     36 % 0.00 in
19:53 89.5 °F 59.0 °F 29.70 in Calm     36 % 0.00 in
19:58 88.9 °F 59.3 °F 29.70 in Calm     37 % 0.00 in
20:03 88.2 °F 59.4 °F 29.70 in Calm     38 % 0.00 in
20:08 87.6 °F 59.6 °F 29.71 in Calm     39 % 0.00 in
20:13 87.0 °F 59.8 °F 29.71 in Calm     40 % 0.00 in
20:18 86.5 °F 60.0 °F 29.71 in Calm     41 % 0.00 in
20:23 85.9 °F 60.8 °F 29.71 in Calm     43 % 0.00 in
20:28 85.3 °F 60.3 °F 29.71 in Calm     43 % 0.00 in
20:33 84.6 °F 60.9 °F 29.71 in Calm     45 % 0.00 in
20:38 84.1 °F 60.5 °F 29.71 in Calm     45 % 0.00 in
20:43 83.6 °F 59.4 °F 29.71 in Calm     44 % 0.00 in
20:48 83.2 °F 59.0 °F 29.71 in Calm     44 % 0.00 in
20:53 82.9 °F 58.7 °F 29.72 in Calm     44 % 0.00 in
20:58 82.6 °F 58.5 °F 29.72 in Calm     44 % 0.00 in
20:59 82.5 °F 58.4 °F 29.72 in Calm     44 % 0.00 in
21:04 82.2 °F 58.1 °F 29.72 in Calm     44 % 0.00 in
21:09 81.9 °F 57.2 °F 29.72 in Calm     43 % 0.00 in
21:14 81.7 °F 56.4 °F 29.73 in Calm     42 % 0.00 in
21:19 81.5 °F 55.5 °F 29.73 in Calm     41 % 0.00 in
21:24 81.4 °F 55.4 °F 29.73 in Calm     41 % 0.00 in
21:29 81.2 °F 55.3 °F 29.73 in Calm     41 % 0.00 in
21:34 81.1 °F 54.5 °F 29.74 in Calm     40 % 0.00 in
21:39 81.1 °F 53.8 °F 29.74 in Calm     39 % 0.00 in
21:44 81.1 °F 55.2 °F 29.74 in Calm     41 % 0.00 in
21:49 80.9 °F 56.3 °F 29.74 in Calm     43 % 0.00 in
21:54 80.8 °F 54.9 °F 29.74 in Calm     41 % 0.00 in
21:59 80.7 °F 54.8 °F 29.75 in Calm     41 % 0.00 in
22:04 80.6 °F 54.7 °F 29.75 in Calm     41 % 0.00 in
22:09 80.4 °F 53.2 °F 29.75 in Calm     39 % 0.00 in
22:14 80.6 °F 52.6 °F 29.75 in Calm     38 % 0.00 in
22:19 80.7 °F 52.0 °F 29.75 in Calm     37 % 0.00 in
22:24 80.7 °F 52.7 °F 29.75 in Calm     38 % 0.00 in
22:29 80.4 °F 53.9 °F 29.75 in Calm     40 % 0.00 in
22:34 79.8 °F 51.9 °F 29.76 in SE 1.2 mph 1.2 mph 38 % 0.00 in
22:39 79.4 °F 53.6 °F 29.76 in Calm     41 % 0.00 in
22:44 78.9 °F 51.8 °F 29.76 in Calm     39 % 0.00 in
22:49 78.7 °F 52.3 °F 29.76 in Calm     40 % 0.00 in
22:55 78.4 °F 53.4 °F 29.76 in Calm     42 % 0.00 in
23:00 78.0 °F 53.7 °F 29.76 in Calm     43 % 0.00 in
23:05 77.7 °F 50.8 °F 29.77 in Calm     39 % 0.00 in
23:10 77.9 °F 50.9 °F 29.77 in Calm     39 % 0.00 in
23:15 78.0 °F 51.0 °F 29.77 in Calm     39 % 0.00 in
23:20 77.8 °F 51.5 °F 29.77 in Calm     40 % 0.00 in
23:25 77.4 °F 51.2 °F 29.77 in SE 1.0 mph   40 % 0.00 in
23:30 76.9 °F 51.4 °F 29.77 in Calm     41 % 0.00 in
23:35 76.5 °F 51.0 °F 29.77 in SE 1.2 mph   41 % 0.00 in
23:40 76.1 °F 51.3 °F 29.78 in Calm     42 % 0.00 in
23:45 75.7 °F 51.0 °F 29.77 in Calm     42 % 0.00 in
23:50 75.3 °F 51.3 °F 29.77 in Calm     43 % 0.00 in
23:55 75.0 °F 52.2 °F 29.77 in Calm     45 % 0.00 in
Park Place, Exeter, Tulare County, California, USA
Compliments of Weather Underground - 2.75 mb